Portada
METAR-TAF:

METAR-TAF

Aeroports :

Chattanooga, Tennessee, Estats Units d'Amèrica

latitud: 35-02-00N, longitud: 085-12-00W, altitud: 207 m

Observació

L'informe es va fer fa 50 minuts, a les 09:53 UTC
Vent calma
Temperatura 20°C
Humitat 83%
Pressió 1016 hPa
Visibilitat: 16.1 km
Escasses núvols a una alçada de 5000 ft
Cel ennuvolat a una alçada de 25000 ft

METAR: KCHA 220953Z 00000KT 10SM FEW050 BKN250 20/17 A2999 RMK AO2 SLP148 T02000172

Hora: 06:43 (10:43 UTC)

Pronòstic

L'informe es va fer fa 5 hores i 11 minuts, a les 05:32 UTC
Pronòstic vàlid del 22 a les 06 UTC al 23 a les 06 UTC
Vent 5 kt del Sud
Visibilitat: 10 km
Escasses núvols a una alçada de 5000 ft
Núvols disperses a una alçada de 25000 ft

TAF: KCHA 220532Z 2206/2306 18005KT P6SM FEW050 SCT250

Observacions i pronòstics meteorològics de més de 4000 aeroports (METAR i TAF).

Les estacions disponibles són els punts grocs i vermells al mapa.

Posi el ratolí al punt desitjat per veure el nom de l'estació.

Feu clic per veure les observacions i els pronòstics meteorològics.

Per canviar el mapa: feu clic els botons verds amb una creu de color negre per apropar; al botó verd amb un guió per allunyar la imatge; o en les fletxes verdes per a mapes adjacents.


METAR-TAF: